sensor_id;sensor_type;location;lat;lon;timestamp;temperature;humidity
31979;DHT22;18502;43.574;1.276;2023-12-07T00:00:37;-0.70;99.90
31979;DHT22;18502;43.574;1.276;2023-12-07T00:03:03;-0.60;99.90
31979;DHT22;18502;43.574;1.276;2023-12-07T00:05:32;-0.50;99.90
31979;DHT22;18502;43.574;1.276;2023-12-07T00:07:58;-0.50;99.90
31979;DHT22;18502;43.574;1.276;2023-12-07T00:10:23;-0.40;99.90
31979;DHT22;18502;43.574;1.276;2023-12-07T00:12:49;-0.40;99.90
31979;DHT22;18502;43.574;1.276;2023-12-07T00:15:15;-0.40;99.90
31979;DHT22;18502;43.574;1.276;2023-12-07T00:17:40;-0.40;99.90
31979;DHT22;18502;43.574;1.276;2023-12-07T00:20:06;-0.30;99.90
31979;DHT22;18502;43.574;1.276;2023-12-07T00:22:32;-0.30;99.90
31979;DHT22;18502;43.574;1.276;2023-12-07T00:24:58;-0.40;99.90
31979;DHT22;18502;43.574;1.276;2023-12-07T00:27:24;-0.30;99.90
31979;DHT22;18502;43.574;1.276;2023-12-07T00:29:49;-0.40;99.90
31979;DHT22;18502;43.574;1.276;2023-12-07T00:32:15;-0.40;99.90
31979;DHT22;18502;43.574;1.276;2023-12-07T00:34:41;-0.30;99.90
31979;DHT22;18502;43.574;1.276;2023-12-07T00:37:06;-0.50;99.90
31979;DHT22;18502;43.574;1.276;2023-12-07T00:39:32;-0.50;99.90
31979;DHT22;18502;43.574;1.276;2023-12-07T00:41:58;-0.40;99.90
31979;DHT22;18502;43.574;1.276;2023-12-07T00:44:24;-0.30;99.90
31979;DHT22;18502;43.574;1.276;2023-12-07T00:46:50;-0.20;99.90
31979;DHT22;18502;43.574;1.276;2023-12-07T00:49:16;-0.20;99.90
31979;DHT22;18502;43.574;1.276;2023-12-07T00:51:41;-0.20;99.90
31979;DHT22;18502;43.574;1.276;2023-12-07T00:54:07;-0.10;99.90
31979;DHT22;18502;43.574;1.276;2023-12-07T00:56:33;0.00;99.90
31979;DHT22;18502;43.574;1.276;2023-12-07T00:58:58;0.00;99.90
31979;DHT22;18502;43.574;1.276;2023-12-07T01:01:24;0.00;99.90
31979;DHT22;18502;43.574;1.276;2023-12-07T01:03:50;0.00;99.90
31979;DHT22;18502;43.574;1.276;2023-12-07T01:06:15;-0.10;99.90
31979;DHT22;18502;43.574;1.276;2023-12-07T01:08:42;-0.10;99.90
31979;DHT22;18502;43.574;1.276;2023-12-07T01:11:08;-0.20;99.90
31979;DHT22;18502;43.574;1.276;2023-12-07T01:13:34;-0.20;99.90
31979;DHT22;18502;43.574;1.276;2023-12-07T01:16:01;-0.20;99.90
31979;DHT22;18502;43.574;1.276;2023-12-07T01:18:27;-0.20;99.90
31979;DHT22;18502;43.574;1.276;2023-12-07T01:20:52;-0.20;99.90
31979;DHT22;18502;43.574;1.276;2023-12-07T01:23:18;-0.30;99.90
31979;DHT22;18502;43.574;1.276;2023-12-07T01:25:44;-0.30;99.90
31979;DHT22;18502;43.574;1.276;2023-12-07T01:28:09;-0.40;99.90
31979;DHT22;18502;43.574;1.276;2023-12-07T01:30:35;-0.60;99.90
31979;DHT22;18502;43.574;1.276;2023-12-07T01:33:01;-0.60;99.90
31979;DHT22;18502;43.574;1.276;2023-12-07T01:35:27;-0.70;99.90
31979;DHT22;18502;43.574;1.276;2023-12-07T01:37:54;-0.80;99.90
31979;DHT22;18502;43.574;1.276;2023-12-07T01:40:20;-0.90;99.90
31979;DHT22;18502;43.574;1.276;2023-12-07T01:42:52;-1.00;99.90
31979;DHT22;18502;43.574;1.276;2023-12-07T01:45:18;-1.00;99.90
31979;DHT22;18502;43.574;1.276;2023-12-07T01:47:45;-1.00;99.90
31979;DHT22;18502;43.574;1.276;2023-12-07T01:50:13;-0.90;99.90
31979;DHT22;18502;43.574;1.276;2023-12-07T01:52:45;-1.00;99.90
31979;DHT22;18502;43.574;1.276;2023-12-07T01:55:13;-1.10;99.90
31979;DHT22;18502;43.574;1.276;2023-12-07T01:57:41;-1.00;99.90
31979;DHT22;18502;43.574;1.276;2023-12-07T02:00:08;-0.90;99.90
31979;DHT22;18502;43.574;1.276;2023-12-07T02:02:34;-0.90;99.90
31979;DHT22;18502;43.574;1.276;2023-12-07T02:05:01;-0.90;99.90
31979;DHT22;18502;43.574;1.276;2023-12-07T02:07:27;-0.80;99.90
31979;DHT22;18502;43.574;1.276;2023-12-07T02:09:53;-0.80;99.90
31979;DHT22;18502;43.574;1.276;2023-12-07T02:12:19;-0.80;99.90
31979;DHT22;18502;43.574;1.276;2023-12-07T02:14:45;-0.90;99.90
31979;DHT22;18502;43.574;1.276;2023-12-07T02:17:33;-1.00;99.90
31979;DHT22;18502;43.574;1.276;2023-12-07T02:22:56;-0.90;99.90
31979;DHT22;18502;43.574;1.276;2023-12-07T02:25:48;-1.00;99.90
31979;DHT22;18502;43.574;1.276;2023-12-07T02:28:16;-0.80;99.90
31979;DHT22;18502;43.574;1.276;2023-12-07T02:30:42;-0.80;99.90
31979;DHT22;18502;43.574;1.276;2023-12-07T02:33:08;-0.90;99.90
31979;DHT22;18502;43.574;1.276;2023-12-07T02:35:35;-0.90;99.90
31979;DHT22;18502;43.574;1.276;2023-12-07T02:38:01;-1.10;99.90
31979;DHT22;18502;43.574;1.276;2023-12-07T02:40:28;-1.20;99.90
31979;DHT22;18502;43.574;1.276;2023-12-07T02:42:54;-1.20;99.90
31979;DHT22;18502;43.574;1.276;2023-12-07T02:45:20;-1.30;99.90
31979;DHT22;18502;43.574;1.276;2023-12-07T02:47:46;-1.30;99.90
31979;DHT22;18502;43.574;1.276;2023-12-07T02:50:13;-1.40;99.90
31979;DHT22;18502;43.574;1.276;2023-12-07T02:52:38;-1.50;99.90
31979;DHT22;18502;43.574;1.276;2023-12-07T02:55:04;-1.50;99.90
31979;DHT22;18502;43.574;1.276;2023-12-07T02:57:31;-1.50;99.90
31979;DHT22;18502;43.574;1.276;2023-12-07T02:59:59;-1.60;99.90
31979;DHT22;18502;43.574;1.276;2023-12-07T03:02:25;-1.70;99.90
31979;DHT22;18502;43.574;1.276;2023-12-07T03:04:51;-1.60;99.90
31979;DHT22;18502;43.574;1.276;2023-12-07T03:07:17;-1.60;99.90
31979;DHT22;18502;43.574;1.276;2023-12-07T03:09:42;-1.60;99.90
31979;DHT22;18502;43.574;1.276;2023-12-07T03:12:08;-1.70;99.90
31979;DHT22;18502;43.574;1.276;2023-12-07T03:14:34;-1.70;99.90
31979;DHT22;18502;43.574;1.276;2023-12-07T03:16:59;-1.60;99.90
31979;DHT22;18502;43.574;1.276;2023-12-07T03:19:25;-1.60;99.90
31979;DHT22;18502;43.574;1.276;2023-12-07T03:21:50;-1.70;99.90
31979;DHT22;18502;43.574;1.276;2023-12-07T03:24:16;-1.60;99.90
31979;DHT22;18502;43.574;1.276;2023-12-07T03:26:42;-1.50;99.90
31979;DHT22;18502;43.574;1.276;2023-12-07T03:29:08;-1.60;99.90
31979;DHT22;18502;43.574;1.276;2023-12-07T03:31:33;-1.70;99.90
31979;DHT22;18502;43.574;1.276;2023-12-07T03:33:59;-1.60;99.90
31979;DHT22;18502;43.574;1.276;2023-12-07T03:36:26;-1.40;99.90
31979;DHT22;18502;43.574;1.276;2023-12-07T03:38:52;-1.30;99.90
31979;DHT22;18502;43.574;1.276;2023-12-07T03:41:18;-1.30;99.90
31979;DHT22;18502;43.574;1.276;2023-12-07T03:43:44;-1.30;99.90
31979;DHT22;18502;43.574;1.276;2023-12-07T03:46:09;-1.40;99.90
31979;DHT22;18502;43.574;1.276;2023-12-07T03:48:35;-1.50;99.90
31979;DHT22;18502;43.574;1.276;2023-12-07T03:51:01;-1.40;99.90
31979;DHT22;18502;43.574;1.276;2023-12-07T03:53:27;-1.40;99.90
31979;DHT22;18502;43.574;1.276;2023-12-07T03:55:53;-1.40;99.90
31979;DHT22;18502;43.574;1.276;2023-12-07T03:58:19;-1.40;99.90
31979;DHT22;18502;43.574;1.276;2023-12-07T04:00:45;-1.50;99.90
31979;DHT22;18502;43.574;1.276;2023-12-07T04:03:10;-1.60;99.90
31979;DHT22;18502;43.574;1.276;2023-12-07T04:05:36;-1.60;99.90
31979;DHT22;18502;43.574;1.276;2023-12-07T04:08:02;-1.60;99.90
31979;DHT22;18502;43.574;1.276;2023-12-07T04:10:30;-1.60;99.90
31979;DHT22;18502;43.574;1.276;2023-12-07T04:12:56;-1.40;99.90
31979;DHT22;18502;43.574;1.276;2023-12-07T04:15:22;-1.40;99.90
31979;DHT22;18502;43.574;1.276;2023-12-07T04:17:48;-1.40;99.90
31979;DHT22;18502;43.574;1.276;2023-12-07T04:20:14;-1.40;99.90
31979;DHT22;18502;43.574;1.276;2023-12-07T04:22:40;-1.30;99.90
31979;DHT22;18502;43.574;1.276;2023-12-07T04:25:06;-1.30;99.90
31979;DHT22;18502;43.574;1.276;2023-12-07T04:27:33;-1.30;99.90
31979;DHT22;18502;43.574;1.276;2023-12-07T04:29:59;-1.20;99.90
31979;DHT22;18502;43.574;1.276;2023-12-07T04:32:24;-1.30;99.90
31979;DHT22;18502;43.574;1.276;2023-12-07T04:34:51;-1.30;99.90
31979;DHT22;18502;43.574;1.276;2023-12-07T04:37:17;-1.20;99.90
31979;DHT22;18502;43.574;1.276;2023-12-07T04:39:42;-1.20;99.90
31979;DHT22;18502;43.574;1.276;2023-12-07T04:42:08;-1.10;99.90
31979;DHT22;18502;43.574;1.276;2023-12-07T04:44:33;-1.10;99.90
31979;DHT22;18502;43.574;1.276;2023-12-07T04:46:59;-1.10;99.90
31979;DHT22;18502;43.574;1.276;2023-12-07T04:49:25;-1.00;99.90
31979;DHT22;18502;43.574;1.276;2023-12-07T04:51:50;-1.00;99.90
31979;DHT22;18502;43.574;1.276;2023-12-07T04:54:16;-1.00;99.90
31979;DHT22;18502;43.574;1.276;2023-12-07T04:56:42;-1.00;99.90
31979;DHT22;18502;43.574;1.276;2023-12-07T04:59:09;-1.00;99.90
31979;DHT22;18502;43.574;1.276;2023-12-07T05:01:38;-1.00;99.90
31979;DHT22;18502;43.574;1.276;2023-12-07T05:04:04;-1.00;99.90
31979;DHT22;18502;43.574;1.276;2023-12-07T05:06:31;-1.10;99.90
31979;DHT22;18502;43.574;1.276;2023-12-07T05:08:56;-1.10;99.90
31979;DHT22;18502;43.574;1.276;2023-12-07T05:11:22;-1.10;99.90
31979;DHT22;18502;43.574;1.276;2023-12-07T05:13:48;-1.10;99.90
31979;DHT22;18502;43.574;1.276;2023-12-07T05:16:14;-1.10;99.90
31979;DHT22;18502;43.574;1.276;2023-12-07T05:18:40;-1.00;99.90
31979;DHT22;18502;43.574;1.276;2023-12-07T05:21:05;-0.90;99.90
31979;DHT22;18502;43.574;1.276;2023-12-07T05:23:31;-0.80;99.90
31979;DHT22;18502;43.574;1.276;2023-12-07T05:25:57;-0.80;99.90
31979;DHT22;18502;43.574;1.276;2023-12-07T05:28:22;-0.80;99.90
31979;DHT22;18502;43.574;1.276;2023-12-07T05:30:49;-0.70;99.90
31979;DHT22;18502;43.574;1.276;2023-12-07T05:33:15;-0.80;99.90
31979;DHT22;18502;43.574;1.276;2023-12-07T05:35:41;-0.70;99.90
31979;DHT22;18502;43.574;1.276;2023-12-07T05:38:06;-0.70;99.90
31979;DHT22;18502;43.574;1.276;2023-12-07T05:40:32;-0.70;99.90
31979;DHT22;18502;43.574;1.276;2023-12-07T05:42:59;-0.70;99.90
31979;DHT22;18502;43.574;1.276;2023-12-07T05:45:25;-0.70;99.90
31979;DHT22;18502;43.574;1.276;2023-12-07T05:47:51;-0.80;99.90
31979;DHT22;18502;43.574;1.276;2023-12-07T05:50:17;-0.80;99.90
31979;DHT22;18502;43.574;1.276;2023-12-07T05:52:43;-0.70;99.90
31979;DHT22;18502;43.574;1.276;2023-12-07T05:55:09;-0.70;99.90
31979;DHT22;18502;43.574;1.276;2023-12-07T05:57:35;-0.70;99.90
31979;DHT22;18502;43.574;1.276;2023-12-07T06:00:01;-0.80;99.90
31979;DHT22;18502;43.574;1.276;2023-12-07T06:02:26;-0.80;99.90
31979;DHT22;18502;43.574;1.276;2023-12-07T06:04:53;-0.90;99.90
31979;DHT22;18502;43.574;1.276;2023-12-07T06:07:18;-0.90;99.90
31979;DHT22;18502;43.574;1.276;2023-12-07T06:12:10;-0.90;99.90
31979;DHT22;18502;43.574;1.276;2023-12-07T06:14:35;-1.00;99.90
31979;DHT22;18502;43.574;1.276;2023-12-07T06:17:01;-1.00;99.90
31979;DHT22;18502;43.574;1.276;2023-12-07T06:19:26;-1.00;99.90
31979;DHT22;18502;43.574;1.276;2023-12-07T06:21:52;-0.90;99.90
31979;DHT22;18502;43.574;1.276;2023-12-07T06:24:18;-0.90;99.90
31979;DHT22;18502;43.574;1.276;2023-12-07T06:26:43;-0.90;99.90
31979;DHT22;18502;43.574;1.276;2023-12-07T06:29:09;-0.90;99.90
31979;DHT22;18502;43.574;1.276;2023-12-07T06:31:35;-0.90;99.90
31979;DHT22;18502;43.574;1.276;2023-12-07T06:34:01;-0.90;99.90
31979;DHT22;18502;43.574;1.276;2023-12-07T06:36:26;-0.90;99.90
31979;DHT22;18502;43.574;1.276;2023-12-07T06:38:53;-0.90;99.90
31979;DHT22;18502;43.574;1.276;2023-12-07T06:41:20;-0.90;99.90
31979;DHT22;18502;43.574;1.276;2023-12-07T06:43:46;-0.90;99.90
31979;DHT22;18502;43.574;1.276;2023-12-07T06:46:12;-0.80;99.90
31979;DHT22;18502;43.574;1.276;2023-12-07T06:48:38;-0.60;99.90
31979;DHT22;18502;43.574;1.276;2023-12-07T06:51:04;-0.60;99.90
31979;DHT22;18502;43.574;1.276;2023-12-07T06:53:30;-0.70;99.90
31979;DHT22;18502;43.574;1.276;2023-12-07T06:55:57;-0.60;99.90
31979;DHT22;18502;43.574;1.276;2023-12-07T06:58:23;-0.60;99.90
31979;DHT22;18502;43.574;1.276;2023-12-07T07:00:49;-0.50;99.90
31979;DHT22;18502;43.574;1.276;2023-12-07T07:03:15;-0.40;99.90
31979;DHT22;18502;43.574;1.276;2023-12-07T07:05:41;-0.50;99.90
31979;DHT22;18502;43.574;1.276;2023-12-07T07:08:06;-0.50;99.90
31979;DHT22;18502;43.574;1.276;2023-12-07T07:10:34;-0.40;99.90
31979;DHT22;18502;43.574;1.276;2023-12-07T07:13:00;-0.40;99.90
31979;DHT22;18502;43.574;1.276;2023-12-07T07:15:28;-0.50;99.90
31979;DHT22;18502;43.574;1.276;2023-12-07T07:17:54;-0.50;99.90
31979;DHT22;18502;43.574;1.276;2023-12-07T07:20:19;-0.50;99.90
31979;DHT22;18502;43.574;1.276;2023-12-07T07:22:46;-0.40;99.90
31979;DHT22;18502;43.574;1.276;2023-12-07T07:25:11;-0.40;99.90
31979;DHT22;18502;43.574;1.276;2023-12-07T07:27:37;-0.40;99.90
31979;DHT22;18502;43.574;1.276;2023-12-07T07:30:03;-0.30;99.90
31979;DHT22;18502;43.574;1.276;2023-12-07T07:32:29;-0.30;99.90
31979;DHT22;18502;43.574;1.276;2023-12-07T07:34:56;-0.20;99.90
31979;DHT22;18502;43.574;1.276;2023-12-07T07:37:22;-0.10;99.90
31979;DHT22;18502;43.574;1.276;2023-12-07T07:39:47;-0.10;99.90
31979;DHT22;18502;43.574;1.276;2023-12-07T07:42:13;0.00;99.90
31979;DHT22;18502;43.574;1.276;2023-12-07T07:44:38;0.10;99.90
31979;DHT22;18502;43.574;1.276;2023-12-07T07:47:04;0.30;99.90
31979;DHT22;18502;43.574;1.276;2023-12-07T07:49:30;0.40;99.90
31979;DHT22;18502;43.574;1.276;2023-12-07T07:51:56;0.50;99.90
31979;DHT22;18502;43.574;1.276;2023-12-07T07:54:21;0.60;99.90
31979;DHT22;18502;43.574;1.276;2023-12-07T07:56:47;0.60;99.90
31979;DHT22;18502;43.574;1.276;2023-12-07T07:59:12;0.70;99.90
31979;DHT22;18502;43.574;1.276;2023-12-07T08:01:38;0.80;99.90
31979;DHT22;18502;43.574;1.276;2023-12-07T08:04:04;0.90;99.90
31979;DHT22;18502;43.574;1.276;2023-12-07T08:06:29;1.10;99.90
31979;DHT22;18502;43.574;1.276;2023-12-07T08:08:55;1.20;99.90
31979;DHT22;18502;43.574;1.276;2023-12-07T08:11:20;1.30;99.90
31979;DHT22;18502;43.574;1.276;2023-12-07T08:13:46;1.40;99.90
31979;DHT22;18502;43.574;1.276;2023-12-07T08:16:12;1.50;99.90
31979;DHT22;18502;43.574;1.276;2023-12-07T08:18:37;1.50;99.90
31979;DHT22;18502;43.574;1.276;2023-12-07T08:21:03;1.80;99.90
31979;DHT22;18502;43.574;1.276;2023-12-07T08:23:29;2.00;99.90
31979;DHT22;18502;43.574;1.276;2023-12-07T08:25:55;2.20;99.90
31979;DHT22;18502;43.574;1.276;2023-12-07T08:28:22;2.20;99.90
31979;DHT22;18502;43.574;1.276;2023-12-07T08:30:48;2.20;99.90
31979;DHT22;18502;43.574;1.276;2023-12-07T08:33:14;2.20;99.90
31979;DHT22;18502;43.574;1.276;2023-12-07T08:35:39;2.30;99.90
31979;DHT22;18502;43.574;1.276;2023-12-07T08:38:05;2.40;99.90
31979;DHT22;18502;43.574;1.276;2023-12-07T08:40:31;2.60;99.90
31979;DHT22;18502;43.574;1.276;2023-12-07T08:42:57;2.90;99.90
31979;DHT22;18502;43.574;1.276;2023-12-07T08:45:22;3.00;99.90
31979;DHT22;18502;43.574;1.276;2023-12-07T08:47:49;3.40;99.90
31979;DHT22;18502;43.574;1.276;2023-12-07T08:50:15;3.90;99.90
31979;DHT22;18502;43.574;1.276;2023-12-07T08:52:40;4.30;99.90
31979;DHT22;18502;43.574;1.276;2023-12-07T08:55:06;4.70;99.90
31979;DHT22;18502;43.574;1.276;2023-12-07T08:57:32;4.70;99.90
31979;DHT22;18502;43.574;1.276;2023-12-07T08:59:57;4.80;99.90
31979;DHT22;18502;43.574;1.276;2023-12-07T09:02:24;5.40;99.90
31979;DHT22;18502;43.574;1.276;2023-12-07T09:04:50;5.50;99.90
31979;DHT22;18502;43.574;1.276;2023-12-07T09:07:17;6.10;99.90
31979;DHT22;18502;43.574;1.276;2023-12-07T09:09:43;6.60;99.90
31979;DHT22;18502;43.574;1.276;2023-12-07T09:12:15;6.10;99.90
31979;DHT22;18502;43.574;1.276;2023-12-07T09:14:41;5.70;99.90
31979;DHT22;18502;43.574;1.276;2023-12-07T09:17:07;5.70;99.90
31979;DHT22;18502;43.574;1.276;2023-12-07T09:19:33;5.70;99.90
31979;DHT22;18502;43.574;1.276;2023-12-07T09:21:58;6.30;99.90
31979;DHT22;18502;43.574;1.276;2023-12-07T09:24:24;7.10;99.90
31979;DHT22;18502;43.574;1.276;2023-12-07T09:26:50;6.90;99.90
31979;DHT22;18502;43.574;1.276;2023-12-07T09:29:15;6.80;99.90
31979;DHT22;18502;43.574;1.276;2023-12-07T09:31:41;7.20;99.90
31979;DHT22;18502;43.574;1.276;2023-12-07T09:34:07;7.10;99.90
31979;DHT22;18502;43.574;1.276;2023-12-07T09:36:34;7.80;99.90
31979;DHT22;18502;43.574;1.276;2023-12-07T09:38:59;7.10;99.90
31979;DHT22;18502;43.574;1.276;2023-12-07T09:41:27;6.80;99.90
31979;DHT22;18502;43.574;1.276;2023-12-07T09:43:54;6.80;99.90
31979;DHT22;18502;43.574;1.276;2023-12-07T09:46:20;6.70;99.90
31979;DHT22;18502;43.574;1.276;2023-12-07T09:48:48;7.00;99.90
31979;DHT22;18502;43.574;1.276;2023-12-07T09:51:15;7.70;99.90
31979;DHT22;18502;43.574;1.276;2023-12-07T09:53:42;8.80;99.90
31979;DHT22;18502;43.574;1.276;2023-12-07T09:56:09;9.30;99.90
31979;DHT22;18502;43.574;1.276;2023-12-07T09:58:35;9.70;99.90
31979;DHT22;18502;43.574;1.276;2023-12-07T10:01:00;9.70;99.90
31979;DHT22;18502;43.574;1.276;2023-12-07T10:03:26;9.40;99.90
31979;DHT22;18502;43.574;1.276;2023-12-07T10:05:56;9.60;99.90
31979;DHT22;18502;43.574;1.276;2023-12-07T10:08:30;10.20;99.90
31979;DHT22;18502;43.574;1.276;2023-12-07T10:11:12;9.90;99.90
31979;DHT22;18502;43.574;1.276;2023-12-07T10:13:39;10.40;99.90
31979;DHT22;18502;43.574;1.276;2023-12-07T10:16:07;10.60;99.90
31979;DHT22;18502;43.574;1.276;2023-12-07T10:18:34;10.90;99.90
31979;DHT22;18502;43.574;1.276;2023-12-07T10:21:00;11.90;99.90
31979;DHT22;18502;43.574;1.276;2023-12-07T10:23:26;11.60;99.90
31979;DHT22;18502;43.574;1.276;2023-12-07T10:25:53;11.70;99.90
31979;DHT22;18502;43.574;1.276;2023-12-07T10:28:18;12.00;99.90
31979;DHT22;18502;43.574;1.276;2023-12-07T10:30:45;11.70;99.90
31979;DHT22;18502;43.574;1.276;2023-12-07T10:33:11;10.90;99.90
31979;DHT22;18502;43.574;1.276;2023-12-07T10:35:39;10.50;99.90
31979;DHT22;18502;43.574;1.276;2023-12-07T10:38:06;10.70;99.90
31979;DHT22;18502;43.574;1.276;2023-12-07T10:40:31;11.30;99.90
31979;DHT22;18502;43.574;1.276;2023-12-07T10:42:58;11.90;99.90
31979;DHT22;18502;43.574;1.276;2023-12-07T10:45:25;12.30;99.90
31979;DHT22;18502;43.574;1.276;2023-12-07T10:47:51;13.00;99.90
31979;DHT22;18502;43.574;1.276;2023-12-07T10:50:23;14.40;99.90
31979;DHT22;18502;43.574;1.276;2023-12-07T10:52:52;13.60;99.90
31979;DHT22;18502;43.574;1.276;2023-12-07T10:55:22;12.70;99.90
31979;DHT22;18502;43.574;1.276;2023-12-07T10:57:52;12.60;99.90
31979;DHT22;18502;43.574;1.276;2023-12-07T11:00:19;12.80;99.90
31979;DHT22;18502;43.574;1.276;2023-12-07T11:02:46;12.60;99.90
31979;DHT22;18502;43.574;1.276;2023-12-07T11:05:12;12.90;99.90
31979;DHT22;18502;43.574;1.276;2023-12-07T11:07:57;12.90;99.90
31979;DHT22;18502;43.574;1.276;2023-12-07T11:10:30;12.80;99.90
31979;DHT22;18502;43.574;1.276;2023-12-07T11:13:11;12.50;99.90
31979;DHT22;18502;43.574;1.276;2023-12-07T11:15:39;12.30;99.90
31979;DHT22;18502;43.574;1.276;2023-12-07T11:18:05;11.80;99.90
31979;DHT22;18502;43.574;1.276;2023-12-07T11:20:39;11.60;99.90
31979;DHT22;18502;43.574;1.276;2023-12-07T11:23:08;11.30;99.90
31979;DHT22;18502;43.574;1.276;2023-12-07T11:25:34;11.60;99.90
31979;DHT22;18502;43.574;1.276;2023-12-07T11:28:01;11.50;99.90
31979;DHT22;18502;43.574;1.276;2023-12-07T11:30:28;11.20;99.90
31979;DHT22;18502;43.574;1.276;2023-12-07T11:32:55;11.10;99.90
31979;DHT22;18502;43.574;1.276;2023-12-07T11:35:21;11.40;99.90
31979;DHT22;18502;43.574;1.276;2023-12-07T11:38:07;11.00;99.90
31979;DHT22;18502;43.574;1.276;2023-12-07T11:40:40;10.70;99.90
31979;DHT22;18502;43.574;1.276;2023-12-07T11:43:07;10.70;99.90
31979;DHT22;18502;43.574;1.276;2023-12-07T11:45:43;10.90;99.90
31979;DHT22;18502;43.574;1.276;2023-12-07T11:48:13;11.10;99.90
31979;DHT22;18502;43.574;1.276;2023-12-07T11:50:58;11.20;99.90
31979;DHT22;18502;43.574;1.276;2023-12-07T11:53:25;11.40;99.90
31979;DHT22;18502;43.574;1.276;2023-12-07T11:55:51;11.60;99.90
31979;DHT22;18502;43.574;1.276;2023-12-07T11:58:17;11.50;99.90
31979;DHT22;18502;43.574;1.276;2023-12-07T12:00:44;11.90;99.90
31979;DHT22;18502;43.574;1.276;2023-12-07T12:03:12;11.80;99.90
31979;DHT22;18502;43.574;1.276;2023-12-07T12:05:38;11.70;99.90
31979;DHT22;18502;43.574;1.276;2023-12-07T12:08:08;11.60;99.90
31979;DHT22;18502;43.574;1.276;2023-12-07T12:10:34;11.40;99.90
31979;DHT22;18502;43.574;1.276;2023-12-07T12:13:03;11.30;99.90
31979;DHT22;18502;43.574;1.276;2023-12-07T12:15:29;11.50;99.90
31979;DHT22;18502;43.574;1.276;2023-12-07T12:17:58;11.30;99.90
31979;DHT22;18502;43.574;1.276;2023-12-07T12:20:25;11.30;99.90
31979;DHT22;18502;43.574;1.276;2023-12-07T12:22:51;11.10;99.90
31979;DHT22;18502;43.574;1.276;2023-12-07T12:25:25;10.90;99.90
31979;DHT22;18502;43.574;1.276;2023-12-07T12:28:03;10.70;99.90
31979;DHT22;18502;43.574;1.276;2023-12-07T12:30:30;10.80;99.90
31979;DHT22;18502;43.574;1.276;2023-12-07T12:32:56;10.70;99.90
31979;DHT22;18502;43.574;1.276;2023-12-07T12:35:22;10.90;99.90
31979;DHT22;18502;43.574;1.276;2023-12-07T12:37:49;11.00;99.90
31979;DHT22;18502;43.574;1.276;2023-12-07T12:40:19;11.20;99.90
31979;DHT22;18502;43.574;1.276;2023-12-07T12:42:49;11.20;99.90
31979;DHT22;18502;43.574;1.276;2023-12-07T12:45:16;11.30;99.90
31979;DHT22;18502;43.574;1.276;2023-12-07T12:47:44;11.30;99.90
31979;DHT22;18502;43.574;1.276;2023-12-07T12:50:11;11.10;99.90
31979;DHT22;18502;43.574;1.276;2023-12-07T12:52:37;10.90;99.90
31979;DHT22;18502;43.574;1.276;2023-12-07T12:55:13;11.00;99.90
31979;DHT22;18502;43.574;1.276;2023-12-07T12:57:39;10.80;99.90
31979;DHT22;18502;43.574;1.276;2023-12-07T13:00:05;10.90;99.90
31979;DHT22;18502;43.574;1.276;2023-12-07T13:02:34;10.80;99.90
31979;DHT22;18502;43.574;1.276;2023-12-07T13:04:59;10.70;99.90
31979;DHT22;18502;43.574;1.276;2023-12-07T13:07:25;10.60;99.90
31979;DHT22;18502;43.574;1.276;2023-12-07T13:09:51;10.60;99.90
31979;DHT22;18502;43.574;1.276;2023-12-07T13:12:17;10.70;99.90
31979;DHT22;18502;43.574;1.276;2023-12-07T13:14:42;10.80;99.90
31979;DHT22;18502;43.574;1.276;2023-12-07T13:17:08;10.80;99.90
31979;DHT22;18502;43.574;1.276;2023-12-07T13:19:34;10.80;99.90
31979;DHT22;18502;43.574;1.276;2023-12-07T13:22:03;10.90;99.90
31979;DHT22;18502;43.574;1.276;2023-12-07T13:24:29;10.70;99.90
31979;DHT22;18502;43.574;1.276;2023-12-07T13:26:55;10.60;99.90
31979;DHT22;18502;43.574;1.276;2023-12-07T13:29:22;10.60;99.90
31979;DHT22;18502;43.574;1.276;2023-12-07T13:31:48;10.60;99.90
31979;DHT22;18502;43.574;1.276;2023-12-07T13:34:15;10.50;99.90
31979;DHT22;18502;43.574;1.276;2023-12-07T13:36:40;10.50;99.90
31979;DHT22;18502;43.574;1.276;2023-12-07T13:39:06;10.40;99.90
31979;DHT22;18502;43.574;1.276;2023-12-07T13:41:34;10.40;99.90
31979;DHT22;18502;43.574;1.276;2023-12-07T13:44:00;10.30;99.90
31979;DHT22;18502;43.574;1.276;2023-12-07T13:46:27;10.30;99.90
31979;DHT22;18502;43.574;1.276;2023-12-07T13:48:52;10.40;99.90
31979;DHT22;18502;43.574;1.276;2023-12-07T13:51:18;10.30;99.90
31979;DHT22;18502;43.574;1.276;2023-12-07T13:53:45;10.30;99.90
31979;DHT22;18502;43.574;1.276;2023-12-07T13:56:11;10.30;99.90
31979;DHT22;18502;43.574;1.276;2023-12-07T13:58:36;10.20;99.90
31979;DHT22;18502;43.574;1.276;2023-12-07T14:01:04;10.20;99.90
31979;DHT22;18502;43.574;1.276;2023-12-07T14:03:30;10.20;99.90
31979;DHT22;18502;43.574;1.276;2023-12-07T14:05:56;10.20;99.90
31979;DHT22;18502;43.574;1.276;2023-12-07T14:08:22;10.20;99.90
31979;DHT22;18502;43.574;1.276;2023-12-07T14:10:47;10.20;99.90
31979;DHT22;18502;43.574;1.276;2023-12-07T14:13:13;10.20;99.90
31979;DHT22;18502;43.574;1.276;2023-12-07T14:15:39;10.10;99.90
31979;DHT22;18502;43.574;1.276;2023-12-07T14:18:06;10.10;99.90
31979;DHT22;18502;43.574;1.276;2023-12-07T14:20:31;10.00;99.90
31979;DHT22;18502;43.574;1.276;2023-12-07T14:22:58;10.00;99.90
31979;DHT22;18502;43.574;1.276;2023-12-07T14:25:29;10.00;99.90
31979;DHT22;18502;43.574;1.276;2023-12-07T14:27:55;10.00;99.90
31979;DHT22;18502;43.574;1.276;2023-12-07T14:30:21;10.00;99.90
31979;DHT22;18502;43.574;1.276;2023-12-07T14:32:48;10.00;99.90
31979;DHT22;18502;43.574;1.276;2023-12-07T14:35:18;9.90;99.90
31979;DHT22;18502;43.574;1.276;2023-12-07T14:37:43;9.80;99.90
31979;DHT22;18502;43.574;1.276;2023-12-07T14:40:09;9.80;99.90
31979;DHT22;18502;43.574;1.276;2023-12-07T14:42:35;9.80;99.90
31979;DHT22;18502;43.574;1.276;2023-12-07T14:45:02;9.80;99.90
31979;DHT22;18502;43.574;1.276;2023-12-07T14:47:27;9.70;99.90
31979;DHT22;18502;43.574;1.276;2023-12-07T14:49:53;9.60;99.90
31979;DHT22;18502;43.574;1.276;2023-12-07T14:52:19;9.60;99.90
31979;DHT22;18502;43.574;1.276;2023-12-07T14:54:44;9.50;99.90
31979;DHT22;18502;43.574;1.276;2023-12-07T14:57:10;9.50;99.90
31979;DHT22;18502;43.574;1.276;2023-12-07T14:59:36;9.50;99.90
31979;DHT22;18502;43.574;1.276;2023-12-07T15:02:01;9.50;99.90
31979;DHT22;18502;43.574;1.276;2023-12-07T15:04:27;9.50;99.90
31979;DHT22;18502;43.574;1.276;2023-12-07T15:06:53;9.50;99.90
31979;DHT22;18502;43.574;1.276;2023-12-07T15:09:20;9.50;99.90
31979;DHT22;18502;43.574;1.276;2023-12-07T15:11:46;9.50;99.90
31979;DHT22;18502;43.574;1.276;2023-12-07T15:14:12;9.40;99.90
31979;DHT22;18502;43.574;1.276;2023-12-07T15:16:38;9.40;99.90
31979;DHT22;18502;43.574;1.276;2023-12-07T15:19:04;9.40;99.90
31979;DHT22;18502;43.574;1.276;2023-12-07T15:21:30;9.30;99.90
31979;DHT22;18502;43.574;1.276;2023-12-07T15:23:56;9.30;99.90
31979;DHT22;18502;43.574;1.276;2023-12-07T15:26:21;9.20;99.90
31979;DHT22;18502;43.574;1.276;2023-12-07T15:28:47;9.10;99.90
31979;DHT22;18502;43.574;1.276;2023-12-07T15:31:13;9.10;99.90
31979;DHT22;18502;43.574;1.276;2023-12-07T15:33:38;9.10;99.90
31979;DHT22;18502;43.574;1.276;2023-12-07T15:36:04;9.10;99.90